sensor_id;sensor_type;location;lat;lon;timestamp;P1;durP1;ratioP1;P2;durP2;ratioP2
57301;SDS011;43149;50.974;18.224;2022-08-19T00:00:04;10.00;;;7.00;;
57301;SDS011;43149;50.974;18.224;2022-08-19T00:02:33;9.90;;;7.50;;
57301;SDS011;43149;50.974;18.224;2022-08-19T00:04:59;11.90;;;7.20;;
57301;SDS011;43149;50.974;18.224;2022-08-19T00:07:25;12.40;;;7.50;;
57301;SDS011;43149;50.974;18.224;2022-08-19T00:09:51;12.10;;;8.00;;
57301;SDS011;43149;50.974;18.224;2022-08-19T00:12:17;15.30;;;8.20;;
57301;SDS011;43149;50.974;18.224;2022-08-19T00:14:43;9.40;;;7.80;;
57301;SDS011;43149;50.974;18.224;2022-08-19T00:17:09;10.60;;;7.90;;
57301;SDS011;43149;50.974;18.224;2022-08-19T00:19:35;14.00;;;8.10;;
57301;SDS011;43149;50.974;18.224;2022-08-19T00:22:02;11.70;;;8.40;;
57301;SDS011;43149;50.974;18.224;2022-08-19T00:24:28;13.50;;;8.20;;
57301;SDS011;43149;50.974;18.224;2022-08-19T00:26:55;9.90;;;7.70;;
57301;SDS011;43149;50.974;18.224;2022-08-19T00:29:23;10.60;;;8.20;;
57301;SDS011;43149;50.974;18.224;2022-08-19T00:31:50;12.00;;;8.30;;
57301;SDS011;43149;50.974;18.224;2022-08-19T00:34:22;12.40;;;8.80;;
57301;SDS011;43149;50.974;18.224;2022-08-19T00:36:48;12.50;;;8.50;;
57301;SDS011;43149;50.974;18.224;2022-08-19T00:39:15;18.50;;;9.50;;
57301;SDS011;43149;50.974;18.224;2022-08-19T00:41:42;10.30;;;8.80;;
57301;SDS011;43149;50.974;18.224;2022-08-19T00:44:15;10.10;;;8.80;;
57301;SDS011;43149;50.974;18.224;2022-08-19T00:46:46;12.60;;;8.40;;
57301;SDS011;43149;50.974;18.224;2022-08-19T00:49:24;10.90;;;8.80;;
57301;SDS011;43149;50.974;18.224;2022-08-19T00:52:00;16.20;;;9.20;;
57301;SDS011;43149;50.974;18.224;2022-08-19T00:54:33;16.50;;;9.30;;
57301;SDS011;43149;50.974;18.224;2022-08-19T00:57:02;13.50;;;8.90;;
57301;SDS011;43149;50.974;18.224;2022-08-19T00:59:32;17.80;;;9.50;;
57301;SDS011;43149;50.974;18.224;2022-08-19T01:02:00;16.00;;;9.30;;
57301;SDS011;43149;50.974;18.224;2022-08-19T01:04:26;15.20;;;9.10;;
57301;SDS011;43149;50.974;18.224;2022-08-19T01:06:52;10.60;;;9.40;;
57301;SDS011;43149;50.974;18.224;2022-08-19T01:09:18;14.10;;;9.60;;
57301;SDS011;43149;50.974;18.224;2022-08-19T01:11:44;14.80;;;8.80;;
57301;SDS011;43149;50.974;18.224;2022-08-19T01:14:10;12.40;;;9.10;;
57301;SDS011;43149;50.974;18.224;2022-08-19T01:16:38;12.00;;;9.40;;
57301;SDS011;43149;50.974;18.224;2022-08-19T01:19:24;12.80;;;9.40;;
57301;SDS011;43149;50.974;18.224;2022-08-19T01:22:05;14.20;;;9.60;;
57301;SDS011;43149;50.974;18.224;2022-08-19T01:24:38;11.90;;;9.20;;
57301;SDS011;43149;50.974;18.224;2022-08-19T01:27:05;15.50;;;10.00;;
57301;SDS011;43149;50.974;18.224;2022-08-19T01:29:31;12.00;;;9.70;;
57301;SDS011;43149;50.974;18.224;2022-08-19T01:31:58;17.10;;;9.80;;
57301;SDS011;43149;50.974;18.224;2022-08-19T01:34:25;15.10;;;10.50;;
57301;SDS011;43149;50.974;18.224;2022-08-19T01:36:51;13.80;;;10.60;;
57301;SDS011;43149;50.974;18.224;2022-08-19T01:39:21;16.10;;;11.30;;
57301;SDS011;43149;50.974;18.224;2022-08-19T01:41:48;13.40;;;10.00;;
57301;SDS011;43149;50.974;18.224;2022-08-19T01:44:16;16.20;;;10.70;;
57301;SDS011;43149;50.974;18.224;2022-08-19T01:46:43;16.30;;;10.40;;
57301;SDS011;43149;50.974;18.224;2022-08-19T01:49:09;15.10;;;10.50;;
57301;SDS011;43149;50.974;18.224;2022-08-19T01:51:36;17.00;;;10.80;;
57301;SDS011;43149;50.974;18.224;2022-08-19T01:54:02;15.10;;;10.40;;
57301;SDS011;43149;50.974;18.224;2022-08-19T01:56:28;16.90;;;10.20;;
57301;SDS011;43149;50.974;18.224;2022-08-19T01:58:58;14.00;;;10.60;;
57301;SDS011;43149;50.974;18.224;2022-08-19T02:01:26;11.90;;;10.60;;
57301;SDS011;43149;50.974;18.224;2022-08-19T02:03:58;16.10;;;10.30;;
57301;SDS011;43149;50.974;18.224;2022-08-19T02:06:26;11.70;;;10.20;;
57301;SDS011;43149;50.974;18.224;2022-08-19T02:08:52;16.40;;;11.20;;
57301;SDS011;43149;50.974;18.224;2022-08-19T02:11:23;13.30;;;11.20;;
57301;SDS011;43149;50.974;18.224;2022-08-19T02:13:52;15.30;;;11.20;;
57301;SDS011;43149;50.974;18.224;2022-08-19T02:16:19;14.50;;;11.90;;
57301;SDS011;43149;50.974;18.224;2022-08-19T02:18:45;15.30;;;11.50;;
57301;SDS011;43149;50.974;18.224;2022-08-19T02:21:17;18.80;;;11.30;;
57301;SDS011;43149;50.974;18.224;2022-08-19T02:23:44;15.10;;;10.90;;
57301;SDS011;43149;50.974;18.224;2022-08-19T02:26:11;17.60;;;11.40;;
57301;SDS011;43149;50.974;18.224;2022-08-19T02:28:38;16.10;;;11.40;;
57301;SDS011;43149;50.974;18.224;2022-08-19T02:31:08;17.30;;;11.70;;
57301;SDS011;43149;50.974;18.224;2022-08-19T02:33:35;16.90;;;11.20;;
57301;SDS011;43149;50.974;18.224;2022-08-19T02:36:03;17.90;;;11.40;;
57301;SDS011;43149;50.974;18.224;2022-08-19T02:38:30;16.10;;;11.40;;
57301;SDS011;43149;50.974;18.224;2022-08-19T02:41:00;17.90;;;11.80;;
57301;SDS011;43149;50.974;18.224;2022-08-19T02:43:29;16.60;;;12.10;;
57301;SDS011;43149;50.974;18.224;2022-08-19T02:45:56;14.70;;;11.80;;
57301;SDS011;43149;50.974;18.224;2022-08-19T02:48:23;19.80;;;12.20;;
57301;SDS011;43149;50.974;18.224;2022-08-19T02:50:51;17.70;;;11.80;;
57301;SDS011;43149;50.974;18.224;2022-08-19T02:53:24;15.10;;;11.20;;
57301;SDS011;43149;50.974;18.224;2022-08-19T02:55:52;17.80;;;11.70;;
57301;SDS011;43149;50.974;18.224;2022-08-19T02:58:18;15.60;;;11.70;;
57301;SDS011;43149;50.974;18.224;2022-08-19T03:00:46;17.90;;;12.20;;
57301;SDS011;43149;50.974;18.224;2022-08-19T03:03:14;20.00;;;12.30;;
57301;SDS011;43149;50.974;18.224;2022-08-19T03:05:41;17.70;;;11.70;;
57301;SDS011;43149;50.974;18.224;2022-08-19T03:08:08;50.10;;;13.90;;
57301;SDS011;43149;50.974;18.224;2022-08-19T03:10:44;17.60;;;12.30;;
57301;SDS011;43149;50.974;18.224;2022-08-19T03:13:15;17.90;;;12.60;;
57301;SDS011;43149;50.974;18.224;2022-08-19T03:15:44;18.80;;;12.50;;
57301;SDS011;43149;50.974;18.224;2022-08-19T03:18:11;16.60;;;12.70;;
57301;SDS011;43149;50.974;18.224;2022-08-19T03:20:42;18.30;;;13.00;;
57301;SDS011;43149;50.974;18.224;2022-08-19T03:23:08;16.50;;;12.90;;
57301;SDS011;43149;50.974;18.224;2022-08-19T03:25:42;19.10;;;13.40;;
57301;SDS011;43149;50.974;18.224;2022-08-19T03:28:12;17.60;;;12.90;;
57301;SDS011;43149;50.974;18.224;2022-08-19T03:30:40;22.60;;;13.00;;
57301;SDS011;43149;50.974;18.224;2022-08-19T03:33:08;19.30;;;13.30;;
57301;SDS011;43149;50.974;18.224;2022-08-19T03:35:35;18.30;;;12.20;;
57301;SDS011;43149;50.974;18.224;2022-08-19T03:38:04;19.50;;;12.50;;
57301;SDS011;43149;50.974;18.224;2022-08-19T03:40:31;16.90;;;12.10;;
57301;SDS011;43149;50.974;18.224;2022-08-19T03:42:57;22.00;;;16.70;;
57301;SDS011;43149;50.974;18.224;2022-08-19T03:45:23;35.00;;;26.70;;
57301;SDS011;43149;50.974;18.224;2022-08-19T03:47:49;19.60;;;12.90;;
57301;SDS011;43149;50.974;18.224;2022-08-19T03:50:15;24.30;;;13.10;;
57301;SDS011;43149;50.974;18.224;2022-08-19T03:52:42;20.20;;;13.60;;
57301;SDS011;43149;50.974;18.224;2022-08-19T03:55:08;20.40;;;13.30;;
57301;SDS011;43149;50.974;18.224;2022-08-19T03:57:34;21.40;;;12.90;;
57301;SDS011;43149;50.974;18.224;2022-08-19T04:00:00;23.00;;;12.90;;
57301;SDS011;43149;50.974;18.224;2022-08-19T04:02:26;21.00;;;13.10;;
57301;SDS011;43149;50.974;18.224;2022-08-19T04:04:53;20.80;;;13.00;;
57301;SDS011;43149;50.974;18.224;2022-08-19T04:07:20;27.20;;;13.40;;
57301;SDS011;43149;50.974;18.224;2022-08-19T04:09:47;19.90;;;13.00;;
57301;SDS011;43149;50.974;18.224;2022-08-19T04:12:14;21.10;;;12.50;;
57301;SDS011;43149;50.974;18.224;2022-08-19T04:14:40;16.70;;;13.00;;
57301;SDS011;43149;50.974;18.224;2022-08-19T04:17:05;19.80;;;13.60;;
57301;SDS011;43149;50.974;18.224;2022-08-19T04:19:32;20.20;;;13.00;;
57301;SDS011;43149;50.974;18.224;2022-08-19T04:21:59;21.40;;;13.40;;
57301;SDS011;43149;50.974;18.224;2022-08-19T04:24:26;19.60;;;13.60;;
57301;SDS011;43149;50.974;18.224;2022-08-19T04:26:52;19.70;;;12.90;;
57301;SDS011;43149;50.974;18.224;2022-08-19T04:29:20;18.50;;;12.30;;
57301;SDS011;43149;50.974;18.224;2022-08-19T04:31:50;18.40;;;12.10;;
57301;SDS011;43149;50.974;18.224;2022-08-19T04:34:18;24.10;;;14.50;;
57301;SDS011;43149;50.974;18.224;2022-08-19T04:36:49;20.70;;;12.40;;
57301;SDS011;43149;50.974;18.224;2022-08-19T04:39:18;18.40;;;12.40;;
57301;SDS011;43149;50.974;18.224;2022-08-19T04:41:47;20.50;;;12.20;;
57301;SDS011;43149;50.974;18.224;2022-08-19T04:44:32;15.50;;;11.40;;
57301;SDS011;43149;50.974;18.224;2022-08-19T04:46:59;15.20;;;11.60;;
57301;SDS011;43149;50.974;18.224;2022-08-19T04:49:25;21.10;;;11.50;;
57301;SDS011;43149;50.974;18.224;2022-08-19T04:51:52;14.80;;;10.90;;
57301;SDS011;43149;50.974;18.224;2022-08-19T04:54:19;20.20;;;11.80;;
57301;SDS011;43149;50.974;18.224;2022-08-19T04:56:51;20.50;;;11.80;;
57301;SDS011;43149;50.974;18.224;2022-08-19T04:59:18;19.70;;;11.40;;
57301;SDS011;43149;50.974;18.224;2022-08-19T05:01:45;15.40;;;11.20;;
57301;SDS011;43149;50.974;18.224;2022-08-19T05:04:16;14.30;;;11.10;;
57301;SDS011;43149;50.974;18.224;2022-08-19T05:06:44;15.90;;;11.00;;
57301;SDS011;43149;50.974;18.224;2022-08-19T05:09:12;18.40;;;11.30;;
57301;SDS011;43149;50.974;18.224;2022-08-19T05:11:38;14.30;;;10.60;;
57301;SDS011;43149;50.974;18.224;2022-08-19T05:14:04;18.80;;;10.60;;
57301;SDS011;43149;50.974;18.224;2022-08-19T05:16:31;16.20;;;10.70;;
57301;SDS011;43149;50.974;18.224;2022-08-19T05:18:57;14.60;;;10.20;;
57301;SDS011;43149;50.974;18.224;2022-08-19T05:21:52;18.90;;;11.00;;
57301;SDS011;43149;50.974;18.224;2022-08-19T05:24:36;14.20;;;9.70;;
57301;SDS011;43149;50.974;18.224;2022-08-19T05:27:02;16.50;;;10.70;;
57301;SDS011;43149;50.974;18.224;2022-08-19T05:29:31;18.30;;;10.70;;
57301;SDS011;43149;50.974;18.224;2022-08-19T05:31:59;15.00;;;11.10;;
57301;SDS011;43149;50.974;18.224;2022-08-19T05:34:26;16.80;;;10.20;;
57301;SDS011;43149;50.974;18.224;2022-08-19T05:36:54;17.80;;;10.60;;
57301;SDS011;43149;50.974;18.224;2022-08-19T05:39:24;15.70;;;9.70;;
57301;SDS011;43149;50.974;18.224;2022-08-19T05:41:53;20.00;;;10.20;;
57301;SDS011;43149;50.974;18.224;2022-08-19T05:44:23;16.10;;;9.80;;
57301;SDS011;43149;50.974;18.224;2022-08-19T05:46:52;15.30;;;10.20;;
57301;SDS011;43149;50.974;18.224;2022-08-19T05:49:19;18.20;;;9.70;;
57301;SDS011;43149;50.974;18.224;2022-08-19T05:51:46;18.80;;;12.00;;
57301;SDS011;43149;50.974;18.224;2022-08-19T05:54:12;21.90;;;11.00;;
57301;SDS011;43149;50.974;18.224;2022-08-19T05:56:39;23.20;;;10.10;;
57301;SDS011;43149;50.974;18.224;2022-08-19T05:59:06;17.80;;;9.60;;
57301;SDS011;43149;50.974;18.224;2022-08-19T06:01:35;16.30;;;9.60;;
57301;SDS011;43149;50.974;18.224;2022-08-19T06:04:03;17.10;;;10.70;;
57301;SDS011;43149;50.974;18.224;2022-08-19T06:06:29;16.00;;;9.30;;
57301;SDS011;43149;50.974;18.224;2022-08-19T06:08:55;21.00;;;10.00;;
57301;SDS011;43149;50.974;18.224;2022-08-19T06:11:40;17.50;;;10.00;;
57301;SDS011;43149;50.974;18.224;2022-08-19T06:14:12;21.70;;;11.90;;
57301;SDS011;43149;50.974;18.224;2022-08-19T06:16:40;20.40;;;9.20;;
57301;SDS011;43149;50.974;18.224;2022-08-19T06:19:08;17.90;;;8.80;;
57301;SDS011;43149;50.974;18.224;2022-08-19T06:21:37;16.30;;;8.20;;
57301;SDS011;43149;50.974;18.224;2022-08-19T06:24:06;14.10;;;9.50;;
57301;SDS011;43149;50.974;18.224;2022-08-19T06:26:34;18.20;;;10.80;;
57301;SDS011;43149;50.974;18.224;2022-08-19T06:29:02;17.30;;;9.20;;
57301;SDS011;43149;50.974;18.224;2022-08-19T06:31:31;14.80;;;8.30;;
57301;SDS011;43149;50.974;18.224;2022-08-19T06:34:00;19.50;;;9.40;;
57301;SDS011;43149;50.974;18.224;2022-08-19T06:36:38;13.80;;;8.00;;
57301;SDS011;43149;50.974;18.224;2022-08-19T06:39:08;17.70;;;9.10;;
57301;SDS011;43149;50.974;18.224;2022-08-19T06:41:39;18.80;;;8.40;;
57301;SDS011;43149;50.974;18.224;2022-08-19T06:44:07;17.20;;;8.40;;
57301;SDS011;43149;50.974;18.224;2022-08-19T06:46:34;16.70;;;8.80;;
57301;SDS011;43149;50.974;18.224;2022-08-19T06:49:00;53.70;;;10.70;;
57301;SDS011;43149;50.974;18.224;2022-08-19T06:51:26;15.70;;;7.90;;
57301;SDS011;43149;50.974;18.224;2022-08-19T06:53:53;15.70;;;8.30;;
57301;SDS011;43149;50.974;18.224;2022-08-19T06:56:21;17.80;;;9.40;;
57301;SDS011;43149;50.974;18.224;2022-08-19T06:58:50;19.70;;;10.30;;
57301;SDS011;43149;50.974;18.224;2022-08-19T07:01:18;15.30;;;9.20;;
57301;SDS011;43149;50.974;18.224;2022-08-19T07:03:45;15.10;;;8.30;;
57301;SDS011;43149;50.974;18.224;2022-08-19T07:06:13;21.90;;;8.00;;
57301;SDS011;43149;50.974;18.224;2022-08-19T07:08:43;13.80;;;7.20;;
57301;SDS011;43149;50.974;18.224;2022-08-19T07:11:11;15.90;;;7.90;;
57301;SDS011;43149;50.974;18.224;2022-08-19T07:13:38;14.30;;;8.20;;
57301;SDS011;43149;50.974;18.224;2022-08-19T07:16:09;12.80;;;8.10;;
57301;SDS011;43149;50.974;18.224;2022-08-19T07:18:38;23.70;;;12.90;;
57301;SDS011;43149;50.974;18.224;2022-08-19T07:23:30;18.10;;;7.90;;
57301;SDS011;43149;50.974;18.224;2022-08-19T07:25:57;17.40;;;8.70;;
57301;SDS011;43149;50.974;18.224;2022-08-19T07:28:24;16.40;;;7.20;;
57301;SDS011;43149;50.974;18.224;2022-08-19T07:30:50;14.30;;;6.80;;
57301;SDS011;43149;50.974;18.224;2022-08-19T07:33:16;19.60;;;9.00;;
57301;SDS011;43149;50.974;18.224;2022-08-19T07:35:43;13.90;;;6.40;;
57301;SDS011;43149;50.974;18.224;2022-08-19T07:38:09;15.40;;;7.50;;
57301;SDS011;43149;50.974;18.224;2022-08-19T07:40:35;16.40;;;6.90;;
57301;SDS011;43149;50.974;18.224;2022-08-19T07:43:01;29.10;;;7.50;;
57301;SDS011;43149;50.974;18.224;2022-08-19T07:45:27;14.80;;;7.00;;
57301;SDS011;43149;50.974;18.224;2022-08-19T07:47:53;17.80;;;7.50;;
57301;SDS011;43149;50.974;18.224;2022-08-19T07:50:20;14.20;;;7.40;;
57301;SDS011;43149;50.974;18.224;2022-08-19T07:52:47;23.50;;;7.90;;
57301;SDS011;43149;50.974;18.224;2022-08-19T07:55:15;17.50;;;9.40;;
57301;SDS011;43149;50.974;18.224;2022-08-19T07:57:42;17.40;;;7.00;;
57301;SDS011;43149;50.974;18.224;2022-08-19T08:00:09;18.80;;;7.40;;
57301;SDS011;43149;50.974;18.224;2022-08-19T08:02:35;19.70;;;6.60;;
57301;SDS011;43149;50.974;18.224;2022-08-19T08:05:02;12.60;;;6.40;;
57301;SDS011;43149;50.974;18.224;2022-08-19T08:07:47;19.40;;;6.90;;
57301;SDS011;43149;50.974;18.224;2022-08-19T08:10:31;44.30;;;8.20;;
57301;SDS011;43149;50.974;18.224;2022-08-19T08:12:57;26.30;;;7.80;;
57301;SDS011;43149;50.974;18.224;2022-08-19T08:15:23;21.00;;;7.20;;
57301;SDS011;43149;50.974;18.224;2022-08-19T08:17:49;22.70;;;8.50;;
57301;SDS011;43149;50.974;18.224;2022-08-19T08:20:16;13.80;;;7.60;;
57301;SDS011;43149;50.974;18.224;2022-08-19T08:22:43;23.40;;;7.00;;
57301;SDS011;43149;50.974;18.224;2022-08-19T08:25:29;22.70;;;7.50;;
57301;SDS011;43149;50.974;18.224;2022-08-19T08:27:56;17.30;;;7.40;;
57301;SDS011;43149;50.974;18.224;2022-08-19T08:30:26;44.50;;;8.30;;
57301;SDS011;43149;50.974;18.224;2022-08-19T08:32:53;29.80;;;8.20;;
57301;SDS011;43149;50.974;18.224;2022-08-19T08:35:20;58.30;;;10.90;;
57301;SDS011;43149;50.974;18.224;2022-08-19T08:37:48;20.60;;;11.30;;
57301;SDS011;43149;50.974;18.224;2022-08-19T08:40:23;24.80;;;12.40;;
57301;SDS011;43149;50.974;18.224;2022-08-19T08:43:02;19.80;;;8.50;;
57301;SDS011;43149;50.974;18.224;2022-08-19T08:45:32;30.00;;;8.10;;
57301;SDS011;43149;50.974;18.224;2022-08-19T08:48:02;19.30;;;6.40;;
57301;SDS011;43149;50.974;18.224;2022-08-19T08:50:45;59.00;;;7.80;;
57301;SDS011;43149;50.974;18.224;2022-08-19T08:53:11;18.10;;;6.00;;
57301;SDS011;43149;50.974;18.224;2022-08-19T08:55:40;18.30;;;5.50;;
57301;SDS011;43149;50.974;18.224;2022-08-19T08:58:11;25.50;;;6.50;;
57301;SDS011;43149;50.974;18.224;2022-08-19T09:00:43;15.80;;;5.60;;
57301;SDS011;43149;50.974;18.224;2022-08-19T09:03:21;20.20;;;8.00;;
57301;SDS011;43149;50.974;18.224;2022-08-19T09:08:52;19.30;;;5.20;;
57301;SDS011;43149;50.974;18.224;2022-08-19T09:11:47;16.00;;;5.30;;
57301;SDS011;43149;50.974;18.224;2022-08-19T09:17:21;19.30;;;5.10;;
57301;SDS011;43149;50.974;18.224;2022-08-19T09:22:35;20.50;;;5.40;;
57301;SDS011;43149;50.974;18.224;2022-08-19T09:25:05;18.00;;;5.30;;
57301;SDS011;43149;50.974;18.224;2022-08-19T09:27:32;14.00;;;4.80;;
57301;SDS011;43149;50.974;18.224;2022-08-19T09:29:58;20.30;;;5.50;;
57301;SDS011;43149;50.974;18.224;2022-08-19T09:32:25;15.80;;;5.20;;
57301;SDS011;43149;50.974;18.224;2022-08-19T09:34:53;14.20;;;5.00;;
57301;SDS011;43149;50.974;18.224;2022-08-19T09:37:20;15.20;;;9.30;;
57301;SDS011;43149;50.974;18.224;2022-08-19T09:39:47;37.30;;;5.50;;
57301;SDS011;43149;50.974;18.224;2022-08-19T09:42:12;17.30;;;5.90;;
57301;SDS011;43149;50.974;18.224;2022-08-19T09:44:40;16.40;;;4.50;;
57301;SDS011;43149;50.974;18.224;2022-08-19T09:47:07;13.30;;;4.70;;
57301;SDS011;43149;50.974;18.224;2022-08-19T09:49:34;14.40;;;6.10;;
57301;SDS011;43149;50.974;18.224;2022-08-19T09:52:00;23.70;;;5.50;;
57301;SDS011;43149;50.974;18.224;2022-08-19T09:54:26;18.10;;;5.70;;
57301;SDS011;43149;50.974;18.224;2022-08-19T09:56:53;19.00;;;6.10;;
57301;SDS011;43149;50.974;18.224;2022-08-19T09:59:20;15.30;;;5.40;;
57301;SDS011;43149;50.974;18.224;2022-08-19T10:01:46;20.90;;;6.30;;
57301;SDS011;43149;50.974;18.224;2022-08-19T10:04:13;72.90;;;8.50;;
57301;SDS011;43149;50.974;18.224;2022-08-19T10:06:39;177.70;;;12.30;;
57301;SDS011;43149;50.974;18.224;2022-08-19T10:09:08;23.60;;;5.00;;
57301;SDS011;43149;50.974;18.224;2022-08-19T10:11:35;24.20;;;6.00;;
57301;SDS011;43149;50.974;18.224;2022-08-19T10:14:03;15.80;;;5.30;;
57301;SDS011;43149;50.974;18.224;2022-08-19T10:16:31;16.00;;;5.50;;
57301;SDS011;43149;50.974;18.224;2022-08-19T10:18:57;64.70;;;7.60;;
57301;SDS011;43149;50.974;18.224;2022-08-19T10:21:26;13.60;;;6.80;;
57301;SDS011;43149;50.974;18.224;2022-08-19T10:23:54;15.10;;;5.70;;
57301;SDS011;43149;50.974;18.224;2022-08-19T10:26:27;18.30;;;5.20;;
57301;SDS011;43149;50.974;18.224;2022-08-19T10:28:54;22.50;;;5.30;;
57301;SDS011;43149;50.974;18.224;2022-08-19T10:31:23;14.30;;;5.50;;
57301;SDS011;43149;50.974;18.224;2022-08-19T10:33:51;26.00;;;4.80;;
57301;SDS011;43149;50.974;18.224;2022-08-19T10:36:31;20.20;;;5.20;;
57301;SDS011;43149;50.974;18.224;2022-08-19T10:38:59;21.90;;;5.50;;
57301;SDS011;43149;50.974;18.224;2022-08-19T10:41:28;22.50;;;6.30;;
57301;SDS011;43149;50.974;18.224;2022-08-19T10:43:56;17.30;;;5.80;;
57301;SDS011;43149;50.974;18.224;2022-08-19T10:46:25;14.90;;;4.70;;
57301;SDS011;43149;50.974;18.224;2022-08-19T10:48:52;15.80;;;6.00;;
57301;SDS011;43149;50.974;18.224;2022-08-19T10:51:20;17.00;;;4.90;;
57301;SDS011;43149;50.974;18.224;2022-08-19T10:54:04;16.00;;;5.00;;
57301;SDS011;43149;50.974;18.224;2022-08-19T10:56:31;15.90;;;4.50;;
57301;SDS011;43149;50.974;18.224;2022-08-19T10:59:21;20.20;;;5.00;;
57301;SDS011;43149;50.974;18.224;2022-08-19T11:01:49;20.40;;;5.20;;
57301;SDS011;43149;50.974;18.224;2022-08-19T11:04:16;20.60;;;5.40;;
57301;SDS011;43149;50.974;18.224;2022-08-19T11:06:45;16.10;;;5.30;;
57301;SDS011;43149;50.974;18.224;2022-08-19T11:09:16;13.90;;;5.80;;
57301;SDS011;43149;50.974;18.224;2022-08-19T11:11:43;16.00;;;5.10;;
57301;SDS011;43149;50.974;18.224;2022-08-19T11:14:11;17.20;;;5.20;;
57301;SDS011;43149;50.974;18.224;2022-08-19T11:16:39;29.70;;;5.90;;
57301;SDS011;43149;50.974;18.224;2022-08-19T11:19:06;17.10;;;5.60;;
57301;SDS011;43149;50.974;18.224;2022-08-19T11:21:34;21.60;;;6.00;;
57301;SDS011;43149;50.974;18.224;2022-08-19T11:24:05;25.40;;;6.00;;
57301;SDS011;43149;50.974;18.224;2022-08-19T11:26:33;20.90;;;5.40;;
57301;SDS011;43149;50.974;18.224;2022-08-19T11:29:00;17.00;;;6.00;;
57301;SDS011;43149;50.974;18.224;2022-08-19T11:31:28;29.50;;;6.80;;
57301;SDS011;43149;50.974;18.224;2022-08-19T11:33:59;16.70;;;5.90;;
57301;SDS011;43149;50.974;18.224;2022-08-19T11:36:28;30.00;;;5.80;;
57301;SDS011;43149;50.974;18.224;2022-08-19T11:38:55;25.80;;;6.20;;
57301;SDS011;43149;50.974;18.224;2022-08-19T11:41:22;20.10;;;6.80;;
57301;SDS011;43149;50.974;18.224;2022-08-19T11:43:49;35.50;;;6.60;;
57301;SDS011;43149;50.974;18.224;2022-08-19T11:46:16;30.40;;;6.30;;
57301;SDS011;43149;50.974;18.224;2022-08-19T11:48:42;22.90;;;6.30;;
57301;SDS011;43149;50.974;18.224;2022-08-19T11:51:10;30.60;;;7.00;;
57301;SDS011;43149;50.974;18.224;2022-08-19T11:53:38;38.40;;;7.40;;
57301;SDS011;43149;50.974;18.224;2022-08-19T11:56:05;31.30;;;6.70;;
57301;SDS011;43149;50.974;18.224;2022-08-19T11:58:32;15.10;;;6.60;;
57301;SDS011;43149;50.974;18.224;2022-08-19T12:00:59;22.20;;;7.50;;
57301;SDS011;43149;50.974;18.224;2022-08-19T12:03:25;19.00;;;7.00;;
57301;SDS011;43149;50.974;18.224;2022-08-19T12:05:51;16.10;;;7.40;;
57301;SDS011;43149;50.974;18.224;2022-08-19T12:08:17;19.50;;;7.10;;
57301;SDS011;43149;50.974;18.224;2022-08-19T12:10:44;23.90;;;6.60;;
57301;SDS011;43149;50.974;18.224;2022-08-19T12:13:11;23.30;;;6.50;;
57301;SDS011;43149;50.974;18.224;2022-08-19T12:15:40;36.10;;;7.50;;
57301;SDS011;43149;50.974;18.224;2022-08-19T12:18:07;18.70;;;8.30;;
57301;SDS011;43149;50.974;18.224;2022-08-19T12:20:37;22.10;;;8.10;;
57301;SDS011;43149;50.974;18.224;2022-08-19T12:23:05;20.80;;;6.50;;
57301;SDS011;43149;50.974;18.224;2022-08-19T12:25:32;22.20;;;6.90;;
57301;SDS011;43149;50.974;18.224;2022-08-19T12:28:00;91.30;;;10.60;;
57301;SDS011;43149;50.974;18.224;2022-08-19T12:30:26;24.60;;;6.20;;
57301;SDS011;43149;50.974;18.224;2022-08-19T12:32:52;93.00;;;9.70;;
57301;SDS011;43149;50.974;18.224;2022-08-19T12:35:18;16.60;;;6.10;;
57301;SDS011;43149;50.974;18.224;2022-08-19T12:37:48;32.00;;;6.70;;
57301;SDS011;43149;50.974;18.224;2022-08-19T12:40:14;17.30;;;6.70;;
57301;SDS011;43149;50.974;18.224;2022-08-19T12:42:41;33.20;;;7.10;;
57301;SDS011;43149;50.974;18.224;2022-08-19T12:45:08;21.60;;;6.20;;
57301;SDS011;43149;50.974;18.224;2022-08-19T12:47:35;128.20;;;12.50;;
57301;SDS011;43149;50.974;18.224;2022-08-19T12:50:02;20.90;;;6.30;;
57301;SDS011;43149;50.974;18.224;2022-08-19T12:52:29;20.10;;;6.50;;
57301;SDS011;43149;50.974;18.224;2022-08-19T12:54:56;14.20;;;7.10;;
57301;SDS011;43149;50.974;18.224;2022-08-19T12:57:23;18.00;;;6.20;;
57301;SDS011;43149;50.974;18.224;2022-08-19T12:59:53;25.60;;;6.60;;
57301;SDS011;43149;50.974;18.224;2022-08-19T13:02:19;20.60;;;6.10;;
57301;SDS011;43149;50.974;18.224;2022-08-19T13:04:45;21.40;;;6.20;;
57301;SDS011;43149;50.974;18.224;2022-08-19T13:07:11;21.20;;;6.30;;
57301;SDS011;43149;50.974;18.224;2022-08-19T13:09:38;23.40;;;5.90;;
57301;SDS011;43149;50.974;18.224;2022-08-19T13:12:07;17.90;;;7.10;;
57301;SDS011;43149;50.974;18.224;2022-08-19T13:14:38;19.70;;;6.10;;
57301;SDS011;43149;50.974;18.224;2022-08-19T13:17:06;16.60;;;6.00;;
57301;SDS011;43149;50.974;18.224;2022-08-19T13:19:32;19.00;;;6.30;;
57301;SDS011;43149;50.974;18.224;2022-08-19T13:21:58;15.20;;;5.90;;
57301;SDS011;43149;50.974;18.224;2022-08-19T13:24:24;11.90;;;6.70;;
57301;SDS011;43149;50.974;18.224;2022-08-19T13:26:50;15.10;;;6.60;;
57301;SDS011;43149;50.974;18.224;2022-08-19T13:29:16;19.60;;;6.50;;
57301;SDS011;43149;50.974;18.224;2022-08-19T13:32:00;26.10;;;7.30;;
57301;SDS011;43149;50.974;18.224;2022-08-19T13:34:45;19.60;;;7.20;;
57301;SDS011;43149;50.974;18.224;2022-08-19T13:37:12;14.60;;;5.70;;
57301;SDS011;43149;50.974;18.224;2022-08-19T13:39:39;15.90;;;6.70;;
57301;SDS011;43149;50.974;18.224;2022-08-19T13:42:05;18.10;;;7.00;;
57301;SDS011;43149;50.974;18.224;2022-08-19T13:44:32;17.20;;;5.50;;
57301;SDS011;43149;50.974;18.224;2022-08-19T13:47:02;21.50;;;6.10;;
57301;SDS011;43149;50.974;18.224;2022-08-19T13:49:33;18.20;;;5.70;;
57301;SDS011;43149;50.974;18.224;2022-08-19T13:52:01;20.20;;;5.90;;
57301;SDS011;43149;50.974;18.224;2022-08-19T13:54:28;26.80;;;5.70;;
57301;SDS011;43149;50.974;18.224;2022-08-19T13:56:54;17.80;;;5.90;;
57301;SDS011;43149;50.974;18.224;2022-08-19T13:59:19;19.00;;;6.50;;
57301;SDS011;43149;50.974;18.224;2022-08-19T14:01:45;17.90;;;5.80;;
57301;SDS011;43149;50.974;18.224;2022-08-19T14:04:11;14.00;;;5.20;;
57301;SDS011;43149;50.974;18.224;2022-08-19T14:06:37;12.70;;;5.90;;
57301;SDS011;43149;50.974;18.224;2022-08-19T14:09:03;16.20;;;5.80;;
57301;SDS011;43149;50.974;18.224;2022-08-19T14:11:31;13.20;;;5.60;;
57301;SDS011;43149;50.974;18.224;2022-08-19T14:13:56;19.00;;;6.40;;
57301;SDS011;43149;50.974;18.224;2022-08-19T14:16:22;22.20;;;6.30;;
57301;SDS011;43149;50.974;18.224;2022-08-19T14:18:49;32.10;;;6.40;;
57301;SDS011;43149;50.974;18.224;2022-08-19T14:21:16;102.30;;;11.90;;
57301;SDS011;43149;50.974;18.224;2022-08-19T14:23:43;40.50;;;7.90;;
57301;SDS011;43149;50.974;18.224;2022-08-19T14:26:11;20.00;;;6.00;;
57301;SDS011;43149;50.974;18.224;2022-08-19T14:28:40;22.40;;;6.50;;
57301;SDS011;43149;50.974;18.224;2022-08-19T14:31:08;30.70;;;6.90;;
57301;SDS011;43149;50.974;18.224;2022-08-19T14:33:34;20.90;;;8.00;;